createdAt,value
2018-10-02T00:00:38.207Z,1011.11
2018-10-02T00:01:18.772Z,1011.15
2018-10-02T00:01:59.333Z,1011.17
2018-10-02T00:02:39.887Z,1011.14
2018-10-02T00:03:20.442Z,1011.12
2018-10-02T00:04:00.998Z,1011.12
2018-10-02T00:04:41.548Z,1011.07
2018-10-02T00:05:22.105Z,1011.11
2018-10-02T00:06:02.678Z,1011.09
2018-10-02T00:06:43.255Z,1011.09
2018-10-02T00:07:23.802Z,1011.13
2018-10-02T00:08:04.389Z,1011.1
2018-10-02T00:08:44.989Z,1011.15
2018-10-02T00:09:25.566Z,1011.1
2018-10-02T00:10:06.085Z,1011.11
2018-10-02T00:10:46.627Z,1011.07
2018-10-02T00:11:27.185Z,1011.11
2018-10-02T00:12:07.759Z,1011.15
2018-10-02T00:12:48.328Z,1011.1
2018-10-02T00:13:28.912Z,1011.12
2018-10-02T00:14:09.460Z,1011.11
2018-10-02T00:14:50.008Z,1011.09
2018-10-02T00:15:30.555Z,1011.15
2018-10-02T00:16:11.127Z,1011.12
2018-10-02T00:16:51.683Z,1011.1
2018-10-02T00:17:32.256Z,1011.14
2018-10-02T00:18:12.806Z,1011.12
2018-10-02T00:18:53.360Z,1011.16
2018-10-02T00:19:33.930Z,1011.17
2018-10-02T00:20:14.481Z,1011.15
2018-10-02T00:20:55.071Z,1011.13
2018-10-02T00:21:35.634Z,1011.19
2018-10-02T00:22:16.165Z,1011.16
2018-10-02T00:22:56.721Z,1011.13
2018-10-02T00:23:37.290Z,1011.15
2018-10-02T00:24:17.841Z,1011.13
2018-10-02T00:24:58.396Z,1011.09
2018-10-02T00:25:38.944Z,1011.12
2018-10-02T00:26:19.498Z,1011.12
2018-10-02T00:27:00.049Z,1011.1
2018-10-02T00:27:40.614Z,1011.12
2018-10-02T00:28:21.161Z,1011.13
2018-10-02T00:29:01.725Z,1011.07
2018-10-02T00:29:42.281Z,1011.1
2018-10-02T00:30:22.851Z,1011.09
2018-10-02T00:31:03.445Z,1011.12
2018-10-02T00:31:44.140Z,1011.17
2018-10-02T00:32:24.722Z,1011.16
2018-10-02T00:33:05.163Z,1011.13
2018-10-02T00:33:45.726Z,1011.14
2018-10-02T00:34:26.288Z,1011.11
2018-10-02T00:35:06.845Z,1011.1
2018-10-02T00:35:47.407Z,1011.1
2018-10-02T00:36:27.971Z,1011.11
2018-10-02T00:37:08.538Z,1011.09
2018-10-02T00:37:49.090Z,1011.08
2018-10-02T00:38:29.814Z,1011.14
2018-10-02T00:39:10.359Z,1011.12
2018-10-02T00:39:50.927Z,1011.16
2018-10-02T00:40:31.508Z,1011.1
2018-10-02T00:41:12.073Z,1011.15
2018-10-02T00:41:52.626Z,1011.14
2018-10-02T00:42:33.208Z,1011.15
2018-10-02T00:43:13.798Z,1011.12
2018-10-02T00:43:54.345Z,1011.12
2018-10-02T00:44:34.932Z,1011.14
2018-10-02T00:45:15.489Z,1011.16
2018-10-02T00:45:56.039Z,1011.13
2018-10-02T00:46:36.594Z,1011.14
2018-10-02T00:47:17.182Z,1011.14
2018-10-02T00:47:57.730Z,1011.16
2018-10-02T00:48:38.288Z,1011.14
2018-10-02T00:49:18.838Z,1011.18
2018-10-02T00:49:59.404Z,1011.14
2018-10-02T00:50:39.957Z,1011.14
2018-10-02T00:51:20.507Z,1011.18
2018-10-02T00:52:01.063Z,1011.14
2018-10-02T00:52:41.656Z,1011.17
2018-10-02T00:53:22.249Z,1011.18
2018-10-02T00:54:02.809Z,1011.24
2018-10-02T00:54:43.363Z,1011.16
2018-10-02T00:55:23.915Z,1011.23
2018-10-02T00:56:04.472Z,1011.23
2018-10-02T00:56:45.082Z,1011.21
2018-10-02T00:57:25.643Z,1011.21
2018-10-02T00:58:06.178Z,1011.22
2018-10-02T00:58:46.735Z,1011.18
2018-10-02T00:59:27.286Z,1011.19
2018-10-02T01:00:07.850Z,1011.21
2018-10-02T01:00:48.407Z,1011.19
2018-10-02T01:01:28.966Z,1011.19
2018-10-02T01:02:09.538Z,1011.22
2018-10-02T01:02:50.096Z,1011.18
2018-10-02T01:03:30.647Z,1011.21
2018-10-02T01:04:11.210Z,1011.2
2018-10-02T01:04:51.772Z,1011.19
2018-10-02T01:05:32.312Z,1011.15
2018-10-02T01:06:12.875Z,1011.22
2018-10-02T01:06:53.430Z,1011.14
2018-10-02T01:07:33.991Z,1011.18
2018-10-02T01:08:14.541Z,1011.21
2018-10-02T01:08:55.097Z,1011.23
2018-10-02T01:09:35.672Z,1011.21
2018-10-02T01:10:16.227Z,1011.19
2018-10-02T01:10:56.779Z,1011.19
2018-10-02T01:11:37.346Z,1011.19
2018-10-02T01:12:17.906Z,1011.15
2018-10-02T01:12:58.461Z,1011.19
2018-10-02T01:13:39.024Z,1011.19
2018-10-02T01:14:19.608Z,1011.17
2018-10-02T01:15:00.171Z,1011.18
2018-10-02T01:15:40.719Z,1011.2
2018-10-02T01:16:21.302Z,1011.19
2018-10-02T01:17:01.864Z,1011.16
2018-10-02T01:17:42.449Z,1011.18
2018-10-02T01:18:23.011Z,1011.16
2018-10-02T01:19:03.555Z,1011.16
2018-10-02T01:19:44.117Z,1011.21
2018-10-02T01:20:24.678Z,1011.26
2018-10-02T01:21:05.241Z,1011.25
2018-10-02T01:21:45.792Z,1011.21
2018-10-02T01:22:26.361Z,1011.23
2018-10-02T01:23:06.918Z,1011.22
2018-10-02T01:23:47.483Z,1011.29
2018-10-02T01:24:28.028Z,1011.29
2018-10-02T01:25:08.661Z,1011.29
2018-10-02T01:25:49.232Z,1011.24
2018-10-02T01:26:29.816Z,1011.28
2018-10-02T01:27:10.380Z,1011.22
2018-10-02T01:27:50.954Z,1011.26
2018-10-02T01:28:31.517Z,1011.29
2018-10-02T01:29:12.069Z,1011.28
2018-10-02T01:29:52.624Z,1011.28
2018-10-02T01:30:33.177Z,1011.26
2018-10-02T01:31:13.743Z,1011.28
2018-10-02T01:31:54.290Z,1011.25
2018-10-02T01:32:34.848Z,1011.18
2018-10-02T01:33:15.409Z,1011.26
2018-10-02T01:33:55.965Z,1011.19
2018-10-02T01:34:36.517Z,1011.21
2018-10-02T01:35:17.071Z,1011.22
2018-10-02T01:35:57.656Z,1011.23
2018-10-02T01:36:38.191Z,1011.23
2018-10-02T01:37:18.747Z,1011.23
2018-10-02T01:37:59.312Z,1011.2
2018-10-02T01:38:39.871Z,1011.2
2018-10-02T01:39:20.421Z,1011.22
2018-10-02T01:40:00.970Z,1011.27
2018-10-02T01:40:41.535Z,1011.19
2018-10-02T01:41:22.085Z,1011.24
2018-10-02T01:42:02.669Z,1011.22
2018-10-02T01:42:43.236Z,1011.25
2018-10-02T01:43:23.791Z,1011.23
2018-10-02T01:44:04.357Z,1011.26
2018-10-02T01:44:44.906Z,1011.21
2018-10-02T01:45:25.459Z,1011.19
2018-10-02T01:46:06.013Z,1011.21
2018-10-02T01:46:46.567Z,1011.17
2018-10-02T01:47:27.132Z,1011.18
2018-10-02T01:48:07.696Z,1011.17
2018-10-02T01:48:48.272Z,1011.15
2018-10-02T01:49:28.849Z,1011.21
2018-10-02T01:50:09.417Z,1011.17
2018-10-02T01:50:49.976Z,1011.14
2018-10-02T01:51:30.534Z,1011.15
2018-10-02T01:52:11.095Z,1011.14
2018-10-02T01:52:51.643Z,1011.13
2018-10-02T01:53:32.206Z,1011.18
2018-10-02T01:54:12.756Z,1011.15
2018-10-02T01:54:53.330Z,1011.19
2018-10-02T01:55:33.860Z,1011.17
2018-10-02T01:56:14.410Z,1011.16
2018-10-02T01:56:54.969Z,1011.17
2018-10-02T01:57:35.536Z,1011.16
2018-10-02T01:58:16.094Z,1011.17
2018-10-02T01:58:56.665Z,1011.2
2018-10-02T01:59:37.221Z,1011.19
2018-10-02T02:00:17.791Z,1011.21
2018-10-02T02:00:58.353Z,1011.2
2018-10-02T02:01:38.902Z,1011.21
2018-10-02T02:02:19.444Z,1011.19
2018-10-02T02:03:00.011Z,1011.24
2018-10-02T02:03:40.569Z,1011.18
2018-10-02T02:04:21.138Z,1011.22
2018-10-02T02:05:01.681Z,1011.19
2018-10-02T02:05:42.276Z,1011.2
2018-10-02T02:06:22.839Z,1011.19
2018-10-02T02:07:03.391Z,1011.25
2018-10-02T02:07:43.981Z,1011.25
2018-10-02T02:08:24.545Z,1011.23
2018-10-02T02:09:05.093Z,1011.26
2018-10-02T02:09:45.652Z,1011.29
2018-10-02T02:10:26.208Z,1011.25
2018-10-02T02:11:06.764Z,1011.25
2018-10-02T02:11:47.322Z,1011.29
2018-10-02T02:12:27.883Z,1011.29
2018-10-02T02:13:08.435Z,1011.29
2018-10-02T02:13:48.992Z,1011.3
2018-10-02T02:14:29.548Z,1011.28
2018-10-02T02:15:10.105Z,1011.3
2018-10-02T02:15:50.659Z,1011.32
2018-10-02T02:16:31.215Z,1011.3
2018-10-02T02:17:11.760Z,1011.29
2018-10-02T02:17:52.315Z,1011.33
2018-10-02T02:18:32.890Z,1011.3
2018-10-02T02:19:13.439Z,1011.27
2018-10-02T02:19:53.984Z,1011.27
2018-10-02T02:20:34.546Z,1011.26
2018-10-02T02:21:15.103Z,1011.27
2018-10-02T02:21:55.650Z,1011.27
2018-10-02T02:22:36.207Z,1011.26
2018-10-02T02:23:16.761Z,1011.26
2018-10-02T02:23:57.356Z,1011.2
2018-10-02T02:24:37.911Z,1011.27
2018-10-02T02:25:18.468Z,1011.23
2018-10-02T02:26:00.017Z,1011.28
2018-10-02T02:26:40.580Z,1011.29
2018-10-02T02:27:21.135Z,1011.25
2018-10-02T02:28:01.683Z,1011.26
2018-10-02T02:28:42.245Z,1011.26
2018-10-02T02:29:22.790Z,1011.29
2018-10-02T02:30:03.360Z,1011.27
2018-10-02T02:30:43.966Z,1011.23
2018-10-02T02:31:24.550Z,1011.25
2018-10-02T02:32:05.108Z,1011.29
2018-10-02T02:32:45.692Z,1011.3
2018-10-02T02:33:26.271Z,1011.3
2018-10-02T02:34:06.851Z,1011.27
2018-10-02T02:34:47.397Z,1011.34
2018-10-02T02:35:27.959Z,1011.31
2018-10-02T02:36:08.551Z,1011.3
2018-10-02T02:36:49.141Z,1011.31
2018-10-02T02:37:29.694Z,1011.29
2018-10-02T02:38:10.251Z,1011.22
2018-10-02T02:38:50.797Z,1011.27
2018-10-02T02:39:31.358Z,1011.28
2018-10-02T02:40:11.933Z,1011.24
2018-10-02T02:40:52.504Z,1011.22
2018-10-02T02:41:33.046Z,1011.24
2018-10-02T02:42:13.617Z,1011.29
2018-10-02T02:42:54.211Z,1011.29
2018-10-02T02:43:34.779Z,1011.27
2018-10-02T02:44:15.340Z,1011.33
2018-10-02T02:44:55.904Z,1011.32
2018-10-02T02:45:36.459Z,1011.33
2018-10-02T02:46:17.027Z,1011.35
2018-10-02T02:46:57.584Z,1011.34
2018-10-02T02:47:38.142Z,1011.34
2018-10-02T02:48:18.706Z,1011.35
2018-10-02T02:48:59.286Z,1011.38
2018-10-02T02:49:39.857Z,1011.37
2018-10-02T02:50:20.413Z,1011.38
2018-10-02T02:51:01.053Z,1011.41
2018-10-02T02:51:41.550Z,1011.35
2018-10-02T02:52:22.105Z,1011.36
2018-10-02T02:53:02.658Z,1011.38
2018-10-02T02:53:43.343Z,1011.39
2018-10-02T02:54:23.895Z,1011.37
2018-10-02T02:55:04.451Z,1011.41
2018-10-02T02:55:45.002Z,1011.39
2018-10-02T02:56:25.556Z,1011.41
2018-10-02T02:57:06.107Z,1011.39
2018-10-02T02:57:46.648Z,1011.34
2018-10-02T02:58:27.219Z,1011.32
2018-10-02T02:59:07.746Z,1011.34
2018-10-02T02:59:48.317Z,1011.33
2018-10-02T03:00:28.852Z,1011.36
2018-10-02T03:01:09.398Z,1011.35
2018-10-02T03:01:49.950Z,1011.35
2018-10-02T03:02:30.513Z,1011.33
2018-10-02T03:03:11.063Z,1011.28
2018-10-02T03:03:51.629Z,1011.32
2018-10-02T03:04:32.180Z,1011.33
2018-10-02T03:05:12.731Z,1011.32
2018-10-02T03:05:53.268Z,1011.32
2018-10-02T03:06:33.817Z,1011.34
2018-10-02T03:07:14.371Z,1011.39
2018-10-02T03:07:54.923Z,1011.32
2018-10-02T03:08:35.527Z,1011.32
2018-10-02T03:09:16.072Z,1011.31
2018-10-02T03:09:56.626Z,1011.28
2018-10-02T03:10:37.195Z,1011.28
2018-10-02T03:11:17.746Z,1011.34
2018-10-02T03:11:58.466Z,1011.31
2018-10-02T03:12:39.027Z,1011.29
2018-10-02T03:13:19.596Z,1011.33
2018-10-02T03:14:00.212Z,1011.35
2018-10-02T03:14:40.764Z,1011.33
2018-10-02T03:15:21.324Z,1011.35
2018-10-02T03:16:01.938Z,1011.35
2018-10-02T03:16:42.474Z,1011.39
2018-10-02T03:17:23.030Z,1011.35
2018-10-02T03:18:03.573Z,1011.33
2018-10-02T03:18:44.121Z,1011.31
2018-10-02T03:19:24.671Z,1011.28
2018-10-02T03:20:05.241Z,1011.32
2018-10-02T03:20:45.802Z,1011.29
2018-10-02T03:21:26.364Z,1011.29
2018-10-02T03:22:06.903Z,1011.28
2018-10-02T03:22:47.521Z,1011.29
2018-10-02T03:23:28.125Z,1011.29
2018-10-02T03:24:08.679Z,1011.28
2018-10-02T03:24:49.235Z,1011.33
2018-10-02T03:25:29.804Z,1011.29
2018-10-02T03:26:10.381Z,1011.29
2018-10-02T03:26:50.952Z,1011.31
2018-10-02T03:27:31.495Z,1011.3
2018-10-02T03:28:12.078Z,1011.3
2018-10-02T03:28:52.635Z,1011.27
2018-10-02T03:29:33.195Z,1011.25
2018-10-02T03:30:13.759Z,1011.25
2018-10-02T03:30:54.309Z,1011.24
2018-10-02T03:31:34.861Z,1011.26
2018-10-02T03:32:15.445Z,1011.28
2018-10-02T03:32:55.996Z,1011.26
2018-10-02T03:33:36.537Z,1011.29
2018-10-02T03:34:17.104Z,1011.31
2018-10-02T03:34:57.652Z,1011.34
2018-10-02T03:35:38.203Z,1011.35
2018-10-02T03:36:18.786Z,1011.37
2018-10-02T03:36:59.352Z,1011.38
2018-10-02T03:37:39.960Z,1011.39
2018-10-02T03:38:20.490Z,1011.36
2018-10-02T03:39:01.065Z,1011.4
2018-10-02T03:39:41.638Z,1011.42
2018-10-02T03:40:22.190Z,1011.39
2018-10-02T03:41:02.788Z,1011.39
2018-10-02T03:41:43.342Z,1011.36
2018-10-02T03:42:23.889Z,1011.33
2018-10-02T03:43:04.463Z,1011.34
2018-10-02T03:43:45.016Z,1011.35
2018-10-02T03:44:25.614Z,1011.34
2018-10-02T03:45:06.172Z,1011.36
2018-10-02T03:45:46.723Z,1011.36
2018-10-02T03:46:27.283Z,1011.35
2018-10-02T03:47:07.842Z,1011.33
2018-10-02T03:47:48.388Z,1011.33
2018-10-02T03:48:28.962Z,1011.35
2018-10-02T03:49:09.506Z,1011.34
2018-10-02T03:49:50.059Z,1011.35
2018-10-02T03:50:30.623Z,1011.32
2018-10-02T03:51:11.198Z,1011.27
2018-10-02T03:51:51.774Z,1011.27
2018-10-02T03:52:32.340Z,1011.3
2018-10-02T03:53:12.893Z,1011.26
2018-10-02T03:53:53.456Z,1011.31
2018-10-02T03:54:34.027Z,1011.31
2018-10-02T03:55:14.585Z,1011.29
2018-10-02T03:55:55.166Z,1011.31
2018-10-02T03:56:35.717Z,1011.27
2018-10-02T03:57:16.284Z,1011.26
2018-10-02T03:57:56.850Z,1011.27
2018-10-02T03:58:37.414Z,1011.29
2018-10-02T03:59:17.969Z,1011.28
2018-10-02T03:59:58.571Z,1011.26
2018-10-02T04:00:39.188Z,1011.23
2018-10-02T04:01:20.519Z,1011.22
2018-10-02T04:02:01.080Z,1011.25
2018-10-02T04:02:41.651Z,1011.26
2018-10-02T04:03:22.277Z,1011.24
2018-10-02T04:04:02.760Z,1011.24
2018-10-02T04:04:43.460Z,1011.21
2018-10-02T04:05:24.033Z,1011.2
2018-10-02T04:06:04.579Z,1011.23
2018-10-02T04:06:45.151Z,1011.2
2018-10-02T04:07:25.914Z,1011.18
2018-10-02T04:08:06.473Z,1011.21
2018-10-02T04:08:47.068Z,1011.25
2018-10-02T04:09:27.614Z,1011.26
2018-10-02T04:10:08.327Z,1011.3
2018-10-02T04:10:48.874Z,1011.31
2018-10-02T04:11:29.420Z,1011.29
2018-10-02T04:12:09.969Z,1011.31
2018-10-02T04:12:50.518Z,1011.3
2018-10-02T04:13:31.070Z,1011.33
2018-10-02T04:14:11.643Z,1011.34
2018-10-02T04:14:52.215Z,1011.31
2018-10-02T04:15:32.808Z,1011.33
2018-10-02T04:16:13.377Z,1011.32
2018-10-02T04:16:54.108Z,1011.29
2018-10-02T04:17:34.809Z,1011.34
2018-10-02T04:18:15.750Z,1011.31
2018-10-02T04:18:56.311Z,1011.34
2018-10-02T04:19:36.881Z,1011.35
2018-10-02T04:20:17.434Z,1011.37
2018-10-02T04:20:58.135Z,1011.38
2018-10-02T04:21:38.958Z,1011.38
2018-10-02T04:22:19.538Z,1011.37
2018-10-02T04:23:00.228Z,1011.4
2018-10-02T04:23:40.814Z,1011.36
2018-10-02T04:24:21.365Z,1011.41
2018-10-02T04:25:01.920Z,1011.42
2018-10-02T04:25:42.879Z,1011.39
2018-10-02T04:26:23.520Z,1011.39
2018-10-02T04:27:04.083Z,1011.43
2018-10-02T04:27:44.790Z,1011.38
2018-10-02T04:28:25.532Z,1011.35
2018-10-02T04:29:06.075Z,1011.37
2018-10-02T04:29:46.996Z,1011.37
2018-10-02T04:30:27.593Z,1011.35
2018-10-02T04:31:08.162Z,1011.37
2018-10-02T04:31:48.993Z,1011.35
2018-10-02T04:32:29.511Z,1011.33
2018-10-02T04:33:10.072Z,1011.37
2018-10-02T04:33:50.980Z,1011.37
2018-10-02T04:34:31.594Z,1011.37
2018-10-02T04:35:12.771Z,1011.38
2018-10-02T04:35:53.427Z,1011.4
2018-10-02T04:36:33.982Z,1011.4
2018-10-02T04:37:14.527Z,1011.41
2018-10-02T04:37:55.093Z,1011.4
2018-10-02T04:38:35.673Z,1011.41
2018-10-02T04:39:16.284Z,1011.45
2018-10-02T04:39:56.822Z,1011.42
2018-10-02T04:40:37.382Z,1011.42
2018-10-02T04:41:17.951Z,1011.42
2018-10-02T04:41:58.518Z,1011.4
2018-10-02T04:42:39.181Z,1011.44
2018-10-02T04:43:19.859Z,1011.44
2018-10-02T04:44:00.454Z,1011.43
2018-10-02T04:44:41.189Z,1011.45
2018-10-02T04:45:21.762Z,1011.46
2018-10-02T04:46:02.334Z,1011.5
2018-10-02T04:46:42.897Z,1011.55
2018-10-02T04:47:23.551Z,1011.49
2018-10-02T04:48:04.365Z,1011.51
2018-10-02T04:48:44.923Z,1011.54
2018-10-02T04:49:25.578Z,1011.54
2018-10-02T04:50:06.402Z,1011.49
2018-10-02T04:50:46.978Z,1011.56
2018-10-02T04:51:27.562Z,1011.54
2018-10-02T04:52:08.123Z,1011.54
2018-10-02T04:52:48.675Z,1011.53
2018-10-02T04:53:29.242Z,1011.51
2018-10-02T04:54:09.808Z,1011.52
2018-10-02T04:54:50.512Z,1011.48
2018-10-02T04:55:32.171Z,1011.53
2018-10-02T04:56:12.895Z,1011.54
2018-10-02T04:56:53.780Z,1011.53
2018-10-02T04:57:34.675Z,1011.5
2018-10-02T04:58:15.273Z,1011.48
2018-10-02T04:58:56.787Z,1011.55
2018-10-02T04:59:37.354Z,1011.55
2018-10-02T05:00:18.258Z,1011.52
2018-10-02T05:00:58.890Z,1011.53
2018-10-02T05:01:39.513Z,1011.47
2018-10-02T05:02:20.191Z,1011.49
2018-10-02T05:03:00.751Z,1011.53
2018-10-02T05:03:41.391Z,1011.49
2018-10-02T05:04:21.944Z,1011.51
2018-10-02T05:05:02.487Z,1011.51
2018-10-02T05:05:43.038Z,1011.54
2018-10-02T05:06:23.608Z,1011.53
2018-10-02T05:07:04.187Z,1011.54
2018-10-02T05:07:44.731Z,1011.6
2018-10-02T05:08:25.385Z,1011.61
2018-10-02T05:09:05.851Z,1011.64
2018-10-02T05:09:46.405Z,1011.59
2018-10-02T05:10:26.976Z,1011.57
2018-10-02T05:11:07.533Z,1011.61
2018-10-02T05:11:48.096Z,1011.56
2018-10-02T05:12:28.662Z,1011.63
2018-10-02T05:13:09.215Z,1011.64
2018-10-02T05:13:49.779Z,1011.64
2018-10-02T05:14:30.335Z,1011.6
2018-10-02T05:15:10.960Z,1011.64
2018-10-02T05:15:51.540Z,1011.63
2018-10-02T05:16:32.072Z,1011.63
2018-10-02T05:17:12.626Z,1011.65
2018-10-02T05:17:53.208Z,1011.63
2018-10-02T05:18:33.752Z,1011.64
2018-10-02T05:19:14.333Z,1011.65
2018-10-02T05:19:54.888Z,1011.66
2018-10-02T05:20:35.450Z,1011.69
2018-10-02T05:21:16.003Z,1011.66
2018-10-02T05:21:56.564Z,1011.71
2018-10-02T05:22:37.123Z,1011.72
2018-10-02T05:23:17.680Z,1011.74
2018-10-02T05:23:58.252Z,1011.73
2018-10-02T05:24:38.803Z,1011.76
2018-10-02T05:25:19.356Z,1011.74
2018-10-02T05:25:59.915Z,1011.72
2018-10-02T05:26:40.465Z,1011.73
2018-10-02T05:27:21.140Z,1011.71
2018-10-02T05:28:01.570Z,1011.72
2018-10-02T05:28:42.122Z,1011.72
2018-10-02T05:29:22.672Z,1011.68
2018-10-02T05:30:03.218Z,1011.71
2018-10-02T05:30:43.768Z,1011.72
2018-10-02T05:31:24.344Z,1011.73
2018-10-02T05:32:04.895Z,1011.69
2018-10-02T05:32:45.464Z,1011.65
2018-10-02T05:33:26.014Z,1011.63
2018-10-02T05:34:06.589Z,1011.65
2018-10-02T05:34:47.170Z,1011.65
2018-10-02T05:35:27.800Z,1011.62
2018-10-02T05:36:08.274Z,1011.64
2018-10-02T05:36:48.880Z,1011.66
2018-10-02T05:37:29.444Z,1011.69
2018-10-02T05:38:09.999Z,1011.71
2018-10-02T05:38:50.559Z,1011.7
2018-10-02T05:39:31.133Z,1011.66
2018-10-02T05:40:11.693Z,1011.64
2018-10-02T05:40:52.251Z,1011.62
2018-10-02T05:41:32.814Z,1011.67
2018-10-02T05:42:13.372Z,1011.63
2018-10-02T05:42:53.934Z,1011.66
2018-10-02T05:43:34.498Z,1011.65
2018-10-02T05:44:15.060Z,1011.67
2018-10-02T05:44:55.624Z,1011.73
2018-10-02T05:45:36.173Z,1011.69
2018-10-02T05:46:17.251Z,1011.72
2018-10-02T05:46:57.830Z,1011.67
2018-10-02T05:47:38.413Z,1011.68
2018-10-02T05:48:18.983Z,1011.7
2018-10-02T05:48:59.553Z,1011.67
2018-10-02T05:49:40.128Z,1011.73
2018-10-02T05:50:20.692Z,1011.75
2018-10-02T05:51:01.249Z,1011.73
2018-10-02T05:51:41.832Z,1011.74
2018-10-02T05:52:22.781Z,1011.76
2018-10-02T05:53:03.523Z,1011.76
2018-10-02T05:53:44.075Z,1011.78
2018-10-02T05:54:24.631Z,1011.77
2018-10-02T05:55:05.192Z,1011.75
2018-10-02T05:55:45.754Z,1011.75
2018-10-02T05:56:26.398Z,1011.73
2018-10-02T05:57:06.959Z,1011.77
2018-10-02T05:57:47.515Z,1011.75
2018-10-02T05:58:28.187Z,1011.79
2018-10-02T05:59:08.697Z,1011.81
2018-10-02T05:59:49.260Z,1011.76
2018-10-02T06:00:29.800Z,1011.82
2018-10-02T06:01:10.356Z,1011.81
2018-10-02T06:01:50.919Z,1011.83
2018-10-02T06:02:31.501Z,1011.84
2018-10-02T06:03:12.069Z,1011.85
2018-10-02T06:03:52.791Z,1011.86
2018-10-02T06:04:33.209Z,1011.85
2018-10-02T06:05:13.765Z,1011.82
2018-10-02T06:05:54.329Z,1011.86
2018-10-02T06:06:34.905Z,1011.85
2018-10-02T06:07:15.465Z,1011.85
2018-10-02T06:07:56.025Z,1011.86
2018-10-02T06:08:36.628Z,1011.84
2018-10-02T06:09:18.182Z,1011.85
2018-10-02T06:09:58.784Z,1011.84
2018-10-02T06:10:39.314Z,1011.84
2018-10-02T06:11:19.869Z,1011.9
2018-10-02T06:12:00.421Z,1011.94
2018-10-02T06:12:40.978Z,1011.95
2018-10-02T06:13:21.554Z,1011.92
2018-10-02T06:14:02.204Z,1011.95
2018-10-02T06:14:42.778Z,1011.98
2018-10-02T06:15:23.335Z,1011.99
2018-10-02T06:16:03.887Z,1012.01
2018-10-02T06:16:44.449Z,1012.06
2018-10-02T06:17:25.015Z,1012.06
2018-10-02T06:18:05.655Z,1012.06
2018-10-02T06:18:46.176Z,1012.03
2018-10-02T06:19:26.687Z,1012.05
2018-10-02T06:20:07.237Z,1012.07
2018-10-02T06:20:47.810Z,1012.06
2018-10-02T06:21:28.381Z,1012.09
2018-10-02T06:22:08.955Z,1012.13
2018-10-02T06:22:49.526Z,1012.1
2018-10-02T06:23:30.113Z,1012.12
2018-10-02T06:24:10.696Z,1012.12
2018-10-02T06:24:51.307Z,1012.12
2018-10-02T06:25:31.842Z,1012.12
2018-10-02T06:26:12.413Z,1012.13
2018-10-02T06:26:52.976Z,1012.13
2018-10-02T06:27:33.547Z,1012.14
2018-10-02T06:28:14.101Z,1012.14
2018-10-02T06:28:54.703Z,1012.12
2018-10-02T06:29:35.250Z,1012.16
2018-10-02T06:30:15.817Z,1012.15
2018-10-02T06:30:56.411Z,1012.1
2018-10-02T06:31:36.996Z,1012.11
2018-10-02T06:32:17.744Z,1012.12
2018-10-02T06:32:58.326Z,1012.07
2018-10-02T06:33:38.883Z,1012.1
2018-10-02T06:34:19.509Z,1012.09
2018-10-02T06:35:00.078Z,1012.09
2018-10-02T06:35:40.632Z,1012.08
2018-10-02T06:36:21.257Z,1012.09
2018-10-02T06:37:01.808Z,1012.09
2018-10-02T06:37:42.391Z,1012.07
2018-10-02T06:38:23.188Z,1012.07
2018-10-02T06:39:03.655Z,1012.06
2018-10-02T06:39:44.171Z,1012.09
2018-10-02T06:40:24.725Z,1012.06
2018-10-02T06:41:05.274Z,1012.03
2018-10-02T06:41:45.834Z,1012.07
2018-10-02T06:42:26.403Z,1012.08
2018-10-02T06:43:06.963Z,1012.06
2018-10-02T06:43:47.611Z,1012.11
2018-10-02T06:44:28.114Z,1012.12
2018-10-02T06:45:08.784Z,1012.15
2018-10-02T06:45:49.257Z,1012.17
2018-10-02T06:46:29.818Z,1012.12
2018-10-02T06:47:10.377Z,1012.13
2018-10-02T06:47:50.945Z,1012.03
2018-10-02T06:48:31.519Z,1012.02
2018-10-02T06:49:12.072Z,1011.99
2018-10-02T06:49:52.637Z,1012.03
2018-10-02T06:50:33.237Z,1012.05
2018-10-02T06:51:13.849Z,1012
2018-10-02T06:51:54.480Z,1012.05
2018-10-02T06:52:35.332Z,1012.08
2018-10-02T06:53:15.469Z,1012.03
2018-10-02T06:53:56.030Z,1012.08
2018-10-02T06:54:36.627Z,1012.06
2018-10-02T06:55:17.188Z,1012.03
2018-10-02T06:55:57.759Z,1012.09
2018-10-02T06:56:38.474Z,1012.06
2018-10-02T06:57:18.961Z,1012.04
2018-10-02T06:57:59.631Z,1012.04
2018-10-02T06:58:40.634Z,1011.98
2018-10-02T06:59:21.173Z,1012.01
2018-10-02T07:00:01.743Z,1012.03
2018-10-02T07:00:42.371Z,1011.99
2018-10-02T07:01:22.839Z,1011.96
2018-10-02T07:02:03.397Z,1011.99
2018-10-02T07:02:43.966Z,1011.97
2018-10-02T07:03:24.539Z,1011.95
2018-10-02T07:04:05.093Z,1011.99
2018-10-02T07:04:45.649Z,1011.97
2018-10-02T07:05:26.208Z,1011.93
2018-10-02T07:06:06.769Z,1011.96
2018-10-02T07:06:47.350Z,1011.93
2018-10-02T07:07:27.873Z,1011.94
2018-10-02T07:08:08.426Z,1012
2018-10-02T07:08:49.021Z,1011.98
2018-10-02T07:09:29.541Z,1012
2018-10-02T07:10:10.096Z,1011.98
2018-10-02T07:10:50.657Z,1012.01
2018-10-02T07:11:31.227Z,1011.96
2018-10-02T07:12:11.775Z,1011.95
2018-10-02T07:12:52.924Z,1012.04
2018-10-02T07:13:33.495Z,1011.93
2018-10-02T07:14:14.045Z,1011.93
2018-10-02T07:14:54.688Z,1011.93
2018-10-02T07:15:35.179Z,1011.9
2018-10-02T07:16:15.737Z,1011.91
2018-10-02T07:16:56.293Z,1011.92
2018-10-02T07:17:36.934Z,1011.95
2018-10-02T07:18:17.419Z,1011.93
2018-10-02T07:18:57.974Z,1011.89
2018-10-02T07:19:38.594Z,1011.93
2018-10-02T07:20:19.149Z,1011.88
2018-10-02T07:20:59.770Z,1011.87
2018-10-02T07:21:40.266Z,1011.86
2018-10-02T07:22:20.833Z,1011.87
2018-10-02T07:23:01.381Z,1011.81
2018-10-02T07:23:41.960Z,1011.84
2018-10-02T07:24:22.520Z,1011.82
2018-10-02T07:25:03.113Z,1011.81
2018-10-02T07:25:43.670Z,1011.78
2018-10-02T07:26:24.301Z,1011.79
2018-10-02T07:27:04.871Z,1011.78
2018-10-02T07:27:45.505Z,1011.78
2018-10-02T07:28:26.021Z,1011.81
2018-10-02T07:29:06.516Z,1011.82
2018-10-02T07:29:47.076Z,1011.76
2018-10-02T07:30:27.639Z,1011.78
2018-10-02T07:31:08.217Z,1011.77
2018-10-02T07:31:48.754Z,1011.73
2018-10-02T07:32:29.383Z,1011.78
2018-10-02T07:33:09.924Z,1011.78
2018-10-02T07:33:50.446Z,1011.79
2018-10-02T07:34:30.998Z,1011.72
2018-10-02T07:35:11.572Z,1011.77
2018-10-02T07:35:52.125Z,1011.77
2018-10-02T07:36:32.725Z,1011.75
2018-10-02T07:37:13.250Z,1011.78
2018-10-02T07:37:53.819Z,1011.75
2018-10-02T07:38:34.458Z,1011.76
2018-10-02T07:39:14.938Z,1011.83
2018-10-02T07:39:55.497Z,1011.76
2018-10-02T07:40:36.062Z,1011.75
2018-10-02T07:41:16.616Z,1011.77
2018-10-02T07:41:57.200Z,1011.75
2018-10-02T07:42:37.737Z,1011.77
2018-10-02T07:43:18.297Z,1011.83
2018-10-02T07:43:58.856Z,1011.84
2018-10-02T07:44:39.501Z,1011.87
2018-10-02T07:45:20.000Z,1011.89
2018-10-02T07:46:00.550Z,1011.9
2018-10-02T07:46:41.112Z,1011.87
2018-10-02T07:47:21.703Z,1011.92
2018-10-02T07:48:02.351Z,1011.9
2018-10-02T07:48:42.809Z,1011.88
2018-10-02T07:49:23.385Z,1011.85
2018-10-02T07:50:03.951Z,1011.89
2018-10-02T07:50:44.717Z,1011.89
2018-10-02T07:51:25.089Z,1011.85
2018-10-02T07:52:05.635Z,1011.87
2018-10-02T07:52:46.195Z,1011.9
2018-10-02T07:53:26.819Z,1011.84
2018-10-02T07:54:07.375Z,1011.84
2018-10-02T07:54:47.887Z,1011.83
2018-10-02T07:55:28.481Z,1011.87
2018-10-02T07:56:09.002Z,1011.86
2018-10-02T07:56:49.586Z,1011.85
2018-10-02T07:57:30.160Z,1011.86
2018-10-02T07:58:10.717Z,1011.81
2018-10-02T07:58:51.300Z,1011.82
2018-10-02T07:59:31.929Z,1011.88
2018-10-02T08:00:12.429Z,1011.79
2018-10-02T08:00:53.940Z,1011.83
2018-10-02T08:01:34.501Z,1011.82
2018-10-02T08:02:15.074Z,1011.86
2018-10-02T08:02:55.673Z,1011.85
2018-10-02T08:03:36.220Z,1011.93
2018-10-02T08:04:16.780Z,1011.88
2018-10-02T08:04:57.421Z,1011.95
2018-10-02T08:05:37.985Z,1011.95
2018-10-02T08:06:18.471Z,1011.93
2018-10-02T08:06:59.044Z,1011.93
2018-10-02T08:07:39.604Z,1011.93
2018-10-02T08:08:20.160Z,1011.98
2018-10-02T08:09:00.814Z,1012.06
2018-10-02T08:09:41.307Z,1012
2018-10-02T08:10:21.865Z,1012.02
2018-10-02T08:11:02.432Z,1011.97
2018-10-02T08:11:43.084Z,1012
2018-10-02T08:12:23.723Z,1011.9